Time;durP1;ratioP1;P1;durP2;ratioP2;P2;SDS_P1;SDS_P2;PMS_P1;PMS_P2;Temp;Humidity;BMP_temperature;BMP_pressure;BME280_temperature;BME280_humidity;BME280_pressure;Samples;Min_cycle;Max_cycle;Signal;HPM_P1;HPM_P2
2022/08/15 00:01:14;;;;;;;15.40;9.43;;;;;;;19.61;82.40;99497.98;1436688;91;21437;-86
2022/08/15 00:03:46;;;;;;;;;;;;;;;19.62;82.00;99496.11;1436069;91;21431;-86
2022/08/15 00:06:21;;;;;;;14.77;10.90;;;;;;;19.61;82.29;99503.88;1437322;91;20320;-86
2022/08/15 00:08:50;;;;;;;12.70;11.43;;;;;;;19.59;81.12;99501.94;1415928;92;21636;-84
2022/08/15 00:11:22;;;;;;;19.00;12.37;;;;;;;19.57;80.75;99506.74;1437849;90;21709;-84
2022/08/15 00:14:03;;;;;;;12.43;10.40;;;;;;;19.47;82.23;99511.83;1436058;90;22857;-85
2022/08/15 00:16:35;;;;;;;17.47;10.30;;;;;;;19.34;83.07;99505.61;1443728;90;21496;-85
2022/08/15 00:19:10;;;;;;;17.03;11.43;;;;;;;19.26;82.80;99503.23;1439506;90;21503;-85
2022/08/15 00:21:44;;;;;;;13.70;10.87;;;;;;;19.21;83.49;99507.11;1418156;92;21517;-82
2022/08/15 00:24:12;;;;;;;14.00;11.10;;;;;;;19.17;83.55;99507.28;1407694;92;21448;-82
2022/08/15 00:26:39;;;;;;;15.07;9.40;;;;;;;19.10;84.31;99517.26;1393225;92;21486;-83
2022/08/15 00:29:06;;;;;;;14.97;10.87;;;;;;;19.07;84.17;99509.66;1435508;90;21636;-82
2022/08/15 00:31:32;;;;;;;13.80;10.10;;;;;;;19.04;84.70;99509.59;1440565;90;21488;-82
2022/08/15 00:34:00;;;;;;;14.13;10.90;;;;;;;19.01;84.95;99507.89;1440801;90;22360;-82
2022/08/15 00:36:30;;;;;;;13.57;11.40;;;;;;;18.92;85.37;99503.35;1428003;90;22449;-84
2022/08/15 00:38:55;;;;;;;11.97;10.30;;;;;;;18.87;86.21;99502.70;1434888;90;22555;-84
2022/08/15 00:41:39;;;;;;;11.80;10.30;;;;;;;18.88;86.20;99504.86;1442124;90;21466;-85
2022/08/15 00:44:23;;;;;;;14.97;11.47;;;;;;;18.87;86.31;99496.00;1440601;90;22413;-85
2022/08/15 00:46:55;;;;;;;15.07;10.87;;;;;;;18.85;87.12;99498.08;1444348;90;22487;-85
2022/08/15 00:49:25;;;;;;;14.70;11.07;;;;;;;18.80;87.06;99495.24;1418332;91;22645;-85
2022/08/15 00:52:08;;;;;;;12.30;10.32;;;;;;;18.82;86.86;99496.38;1435150;90;21474;-84
2022/08/15 00:54:52;;;;;;;12.83;10.93;;;;;;;18.84;86.93;99498.29;1434416;90;21706;-84
2022/08/15 00:57:23;;;;;;;14.67;11.30;;;;;;;18.86;86.86;99498.89;1442714;90;22664;-86
2022/08/15 00:59:55;;;;;;;15.57;12.07;;;;;;;18.82;87.38;99503.89;1439650;90;22523;-84
2022/08/15 01:02:31;;;;;;;15.90;11.30;;;;;;;18.78;86.49;99508.04;1437821;90;22725;-84
2022/08/15 01:04:58;;;;;;;14.30;11.20;;;;;;;18.74;86.30;99505.52;1437508;90;22318;-85
2022/08/15 01:07:24;;;;;;;19.07;12.17;;;;;;;18.69;86.74;99508.02;1442541;90;21415;-85
2022/08/15 01:09:52;;;;;;;13.27;11.17;;;;;;;18.62;87.59;99508.63;1438766;90;21496;-84
2022/08/15 01:12:22;;;;;;;18.43;10.80;;;;;;;18.56;87.78;99502.28;1434422;90;21593;-85
2022/08/15 01:14:53;;;;;;;12.93;10.23;;;;;;;18.55;88.05;99503.84;1415024;90;21501;-85
2022/08/15 01:17:21;;;;;;;15.87;11.27;;;;;;;18.55;88.20;99509.19;1412931;92;21523;-84
2022/08/15 01:19:59;;;;;;;13.93;10.73;;;;;;;18.56;87.89;99510.82;1412582;92;21507;-85
2022/08/15 01:22:49;;;;;;;15.33;11.80;;;;;;;18.58;87.88;99516.78;1418153;91;22537;-87
2022/08/15 01:25:27;;;;;;;18.67;11.18;;;;;;;18.56;89.25;99506.80;1399559;93;21671;-86
2022/08/15 01:28:01;;;;;;;14.23;11.80;;;;;;;18.52;89.92;99506.96;1405478;93;21531;-86
2022/08/15 01:30:35;;;;;;;16.00;12.00;;;;;;;18.49;88.99;99510.38;1393914;93;21460;-86
2022/08/15 01:33:01;;;;;;;13.00;10.83;;;;;;;18.47;89.15;99503.59;1399584;93;21688;-86
2022/08/15 01:35:28;;;;;;;14.13;11.90;;;;;;;18.48;89.53;99503.91;1400355;93;21651;-84
2022/08/15 01:37:56;;;;;;;16.47;11.80;;;;;;;18.47;89.89;99499.58;1401223;93;23549;-84
2022/08/15 01:40:31;;;;;;;18.50;12.03;;;;;;;18.42;90.86;99493.56;1397611;93;22568;-84
2022/08/15 01:42:57;;;;;;;14.83;11.47;;;;;;;18.45;90.51;99490.96;1396465;93;21518;-84
2022/08/15 01:45:29;;;;;;;24.37;11.13;;;;;;;18.47;89.84;99492.38;1397292;93;22672;-84
2022/08/15 01:48:06;;;;;;;20.67;11.43;;;;;;;18.49;89.36;99504.20;1400634;93;21629;-84
2022/08/15 01:50:46;;;;;;;16.07;12.17;;;;;;;18.50;89.12;99505.86;1434314;90;21611;-84
2022/08/15 01:53:23;;;;;;;16.30;12.55;;;;;;;18.47;89.50;99503.59;1409445;93;21547;-84
2022/08/15 01:55:55;;;;;;;16.60;12.67;;;;;;;18.42;90.20;99497.58;1441826;90;21496;-84
2022/08/15 01:58:22;;;;;;;20.17;13.87;;;;;;;18.37;90.07;99493.92;1444928;90;22737;-84
2022/08/15 02:00:53;;;;;;;23.97;13.00;;;;;;;18.35;90.92;99500.83;1444268;90;21680;-82
2022/08/15 02:03:20;;;;;;;14.23;12.30;;;;;;;18.34;90.15;99497.05;1444871;90;21503;-83
2022/08/15 02:05:47;;;;;;;13.77;11.43;;;;;;;18.38;89.75;99495.55;1442192;90;21489;-83
2022/08/15 02:08:13;;;;;;;16.17;12.23;;;;;;;18.41;89.33;99491.09;1446978;90;22068;-82
2022/08/15 02:10:43;;;;;;;14.70;11.50;;;;;;;18.36;90.92;99489.09;1441105;90;21451;-84
2022/08/15 02:13:08;;;;;;;20.63;11.53;;;;;;;18.34;91.41;99491.16;1445833;90;21510;-85
2022/08/15 02:15:35;;;;;;;18.10;12.03;;;;;;;18.33;90.46;99490.87;1430616;90;21488;-83
2022/08/15 02:18:02;;;;;;;19.77;12.03;;;;;;;18.35;90.07;99490.11;1437253;90;21480;-84
2022/08/15 02:20:28;;;;;;;17.27;12.50;;;;;;;18.34;90.59;99491.16;1440998;90;22689;-84
2022/08/15 02:22:56;;;;;;;15.93;12.37;;;;;;;18.33;90.00;99485.52;1445975;90;21444;-85
2022/08/15 02:25:22;;;;;;;20.60;13.67;;;;;;;18.30;91.20;99485.96;1445167;90;21429;-86
2022/08/15 02:27:49;;;;;;;16.93;12.53;;;;;;;18.20;91.98;99490.46;1431742;90;21499;-85
2022/08/15 02:30:17;;;;;;;14.13;11.67;;;;;;;18.14;92.61;99492.69;1396835;93;21479;-86
2022/08/15 02:32:46;;;;;;;17.77;12.43;;;;;;;18.14;91.79;99499.38;1394826;94;21482;-85
2022/08/15 02:35:12;;;;;;;15.10;11.37;;;;;;;18.13;91.41;99498.27;1392100;94;21587;-84
2022/08/15 02:37:40;;;;;;;17.13;11.30;;;;;;;18.11;91.26;99497.67;1397467;93;21556;-85
2022/08/15 02:40:11;;;;;;;12.17;10.20;;;;;;;18.00;91.10;99495.98;1381362;93;21606;-85
2022/08/15 02:42:38;;;;;;;17.03;11.23;;;;;;;17.92;92.01;99492.23;1451429;90;21503;-85
2022/08/15 02:45:10;;;;;;;14.53;11.23;;;;;;;17.87;91.12;99493.96;1440362;90;21488;-85
2022/08/15 02:47:35;;;;;;;16.67;12.47;;;;;;;17.80;91.04;99492.66;1445082;90;21756;-86
2022/08/15 02:50:02;;;;;;;14.93;11.97;;;;;;;17.78;91.21;99494.22;1436842;90;21592;-85
2022/08/15 02:52:28;;;;;;;18.67;12.50;;;;;;;17.76;91.75;99504.28;1440477;90;22575;-86
2022/08/15 02:54:55;;;;;;;12.87;11.47;;;;;;;17.69;92.24;99502.68;1420036;92;21567;-86
2022/08/15 02:57:21;;;;;;;15.70;11.47;;;;;;;17.62;92.06;99497.91;1415537;92;22330;-85
2022/08/15 02:59:47;;;;;;;14.80;11.60;;;;;;;17.59;92.00;99489.27;1413445;92;21645;-86
2022/08/15 03:02:13;;;;;;;13.07;11.67;;;;;;;17.62;92.14;99495.23;1419107;92;21509;-85
2022/08/15 03:04:39;;;;;;;13.67;11.20;;;;;;;17.64;92.00;99503.34;1411480;92;21501;-85
2022/08/15 03:07:05;;;;;;;13.87;11.57;;;;;;;17.67;93.07;99512.80;1416991;92;22462;-83
2022/08/15 03:09:31;;;;;;;15.57;11.90;;;;;;;17.65;92.67;99513.53;1417864;92;22447;-83
2022/08/15 03:11:57;;;;;;;16.40;11.87;;;;;;;17.62;93.30;99513.95;1414143;92;21509;-83
2022/08/15 03:14:25;;;;;;;14.63;12.67;;;;;;;17.58;93.57;99510.91;1409552;92;21479;-83
2022/08/15 03:16:51;;;;;;;18.70;11.80;;;;;;;17.60;93.55;99515.50;1408230;92;22862;-84
2022/08/15 03:19:25;;;;;;;15.53;11.67;;;;;;;17.64;92.61;99507.88;1394140;94;21419;-84
2022/08/15 03:21:50;;;;;;;17.03;13.00;;;;;;;17.66;93.27;99513.30;1406147;93;22612;-84
2022/08/15 03:24:19;;;;;;;18.23;13.23;;;;;;;17.65;93.64;99510.85;1422090;91;21567;-83
2022/08/15 03:26:46;;;;;;;18.53;14.53;;;;;;;17.63;93.68;99508.90;1422218;91;21470;-84
2022/08/15 03:29:18;;;;;;;18.30;12.33;;;;;;;17.64;93.54;99515.91;1425900;91;21493;-84
2022/08/15 03:31:49;;;;;;;14.80;12.23;;;;;;;17.62;93.82;99512.63;1425275;91;21500;-85
2022/08/15 03:34:19;;;;;;;19.70;13.50;;;;;;;17.56;93.78;99516.45;1423208;91;21529;-85
2022/08/15 03:36:46;;;;;;;16.60;12.50;;;;;;;17.54;94.35;99513.69;1422350;91;22366;-85
2022/08/15 03:39:15;;;;;;;17.20;12.47;;;;;;;17.52;94.35;99507.72;1424744;91;21589;-85
2022/08/15 03:41:43;;;;;;;19.13;12.07;;;;;;;17.54;93.88;99519.85;1426315;91;21470;-86
2022/08/15 03:44:11;;;;;;;15.00;12.43;;;;;;;17.51;95.61;99516.27;1426835;91;22889;-85
2022/08/15 03:46:38;;;;;;;24.10;13.20;;;;;;;17.50;94.67;99514.64;1423243;91;21536;-85
2022/08/15 03:49:04;;;;;;;18.57;12.80;;;;;;;17.55;94.83;99516.16;1425700;91;21441;-85
2022/08/15 03:51:30;;;;;;;15.63;12.03;;;;;;;17.57;94.83;99516.74;1426243;91;21566;-85
2022/08/15 03:53:59;;;;;;;14.43;12.13;;;;;;;17.63;94.26;99512.91;1422294;92;21567;-86
2022/08/15 03:56:30;;;;;;;17.67;12.93;;;;;;;17.66;94.31;99516.49;1403411;92;21454;-86
2022/08/15 03:58:58;;;;;;;17.10;13.13;;;;;;;17.66;93.22;99515.97;1420425;92;21448;-86
2022/08/15 04:01:30;;;;;;;23.03;12.67;;;;;;;17.67;92.61;99515.48;1419793;92;21589;-86
2022/08/15 04:03:57;;;;;;;15.53;11.33;;;;;;;17.67;92.31;99508.27;1421136;90;21647;-86
2022/08/15 04:06:26;;;;;;;31.70;14.30;;;;;;;17.68;93.60;99517.11;1419940;92;21619;-86
2022/08/15 04:08:54;;;;;;;22.73;14.13;;;;;;;17.65;94.33;99514.87;1424709;92;21663;-86
2022/08/15 04:11:24;;;;;;;17.30;11.87;;;;;;;17.64;94.36;99509.22;1427087;92;21448;-86
2022/08/15 04:13:51;;;;;;;;;;;;;;;17.67;94.08;99516.81;1426110;92;21530;-85
2022/08/15 04:16:18;;;;;;;15.23;12.63;;;;;;;17.68;94.90;99512.56;1422602;91;20796;-86
2022/08/15 04:18:44;;;;;;;25.07;13.63;;;;;;;17.75;94.02;99510.69;1419159;92;21484;-86
2022/08/15 04:21:13;;;;;;;23.17;14.20;;;;;;;17.84;93.69;99499.23;1423490;92;22610;-86
2022/08/15 04:23:44;;;;;;;24.90;12.80;;;;;;;17.94;93.81;99506.23;1423346;91;21693;-85
2022/08/15 04:26:11;;;;;;;21.47;13.37;;;;;;;17.99;93.51;99508.27;1423362;92;21693;-83
2022/08/15 04:28:38;;;;;;;23.60;13.97;;;;;;;18.01;93.81;99504.83;1406409;93;22523;-85
2022/08/15 04:31:12;;;;;;;22.53;15.93;;;;;;;18.01;94.18;99509.69;1438332;90;21458;-84
2022/08/15 04:33:38;;;;;;;17.47;14.37;;;;;;;18.01;94.24;99507.02;1446026;89;21503;-84
2022/08/15 04:36:12;;;;;;;24.67;13.90;;;;;;;18.07;94.16;99489.75;1445495;90;21561;-83
2022/08/15 04:38:40;;;;;;;20.27;13.47;;;;;;;18.13;94.16;99484.36;1443212;90;21503;-84
2022/08/15 04:41:08;;;;;;;22.37;13.43;;;;;;;18.20;94.16;99483.77;1449645;90;21606;-85
2022/08/15 04:43:36;;;;;;;17.17;13.57;;;;;;;18.26;93.79;99487.42;1441327;90;21503;-84
2022/08/15 04:46:05;;;;;;;17.30;13.83;;;;;;;18.31;93.55;99483.57;1443756;90;21448;-84
2022/08/15 04:48:31;;;;;;;17.30;13.07;;;;;;;18.38;93.32;99496.36;1436961;90;22639;-84
2022/08/15 04:50:59;;;;;;;21.87;13.33;;;;;;;18.43;93.75;99496.53;1428067;90;21497;-84
2022/08/15 04:53:30;;;;;;;25.10;15.80;;;;;;;18.44;93.66;99502.20;1441504;90;21518;-84
2022/08/15 04:55:59;;;;;;;21.80;15.17;;;;;;;18.45;93.35;99506.52;1436037;91;22406;-84
2022/08/15 04:58:25;;;;;;;20.70;13.77;;;;;;;18.48;93.17;99504.73;1438010;89;21533;-84
2022/08/15 05:01:02;;;;;;;17.30;14.00;;;;;;;18.54;93.68;99507.56;1435428;91;22003;-85
2022/08/15 05:03:29;;;;;;;24.47;13.87;;;;;;;18.60;94.46;99502.66;1436334;90;21513;-86
2022/08/15 05:06:03;;;;;;;18.83;13.30;;;;;;;18.73;93.96;99511.91;1446728;91;21437;-85
2022/08/15 05:08:33;;;;;;;21.43;11.73;;;;;;;18.82;94.16;99515.95;1438335;90;21593;-84
2022/08/15 05:11:04;;;;;;;26.25;11.93;;;;;;;18.86;94.42;99509.09;1440868;91;21714;-84
2022/08/15 05:13:35;;;;;;;17.87;12.27;;;;;;;19.02;93.30;99505.49;1442004;91;21475;-83
2022/08/15 05:16:04;;;;;;;19.67;13.27;;;;;;;19.13;92.87;99498.87;1412615;91;21637;-84
2022/08/15 05:18:31;;;;;;;20.80;12.87;;;;;;;19.26;92.03;99497.87;1441238;90;22472;-84
2022/08/15 05:20:58;;;;;;;18.93;13.60;;;;;;;19.37;91.15;99497.09;1431972;91;21430;-84
2022/08/15 05:23:26;;;;;;;20.68;14.10;;;;;;;19.51;90.52;99498.27;1436368;90;22850;-84
2022/08/15 05:25:56;;;;;;;14.58;12.33;;;;;;;19.54;89.58;99499.96;1427539;90;21455;-85
2022/08/15 05:28:23;;;;;;;14.80;11.93;;;;;;;19.56;89.14;99503.74;1434885;91;21430;-84
2022/08/15 05:30:52;;;;;;;20.32;12.68;;;;;;;19.64;89.04;99506.63;1436001;91;21445;-85
2022/08/15 05:33:25;;;;;;;16.10;11.73;;;;;;;19.77;89.26;99511.31;1431500;91;21993;-84
2022/08/15 05:35:58;;;;;;;21.27;11.68;;;;;;;19.96;88.87;99510.69;1436166;91;21480;-84
2022/08/15 05:38:29;;;;;;;15.18;12.05;;;;;;;20.13;88.02;99507.34;1441314;91;22540;-85
2022/08/15 05:41:14;;;;;;;17.95;13.50;;;;;;;20.27;86.88;99510.91;1433113;91;21675;-84
2022/08/15 05:44:10;;;;;;;14.45;11.90;;;;;;;20.38;85.26;99517.87;1437782;91;22434;-84
2022/08/15 05:46:58;;;;;;;25.23;11.83;;;;;;;20.46;84.49;99521.02;1434791;91;22494;-86
2022/08/15 05:49:31;;;;;;;20.92;11.95;;;;;;;20.62;84.70;99518.16;1434616;91;21592;-87
2022/08/15 05:52:15;;;;;;;18.12;11.25;;;;;;;20.83;84.48;99519.94;1444383;90;21562;-86
2022/08/15 05:55:13;;;;;;;22.00;12.37;;;;;;;20.90;81.68;99523.34;1407820;92;21522;-87
2022/08/15 05:58:10;;;;;;;21.33;11.05;;;;;;;21.02;81.95;99523.31;1439445;91;22462;-83
2022/08/15 06:00:38;;;;;;;14.60;12.35;;;;;;;21.11;80.84;99521.34;1406332;92;21395;-84
2022/08/15 06:03:10;;;;;;;14.10;11.80;;;;;;;21.28;80.35;99524.09;1439028;90;21430;-84
2022/08/15 06:05:47;;;;;;;20.90;10.58;;;;;;;21.41;79.70;99528.42;1426826;91;21533;-84
2022/08/15 06:08:19;;;;;;;12.55;10.23;;;;;;;21.49;78.68;99524.00;1413951;91;21577;-85
2022/08/15 06:11:11;;;;;;;19.23;10.55;;;;;;;21.58;77.57;99517.16;1411691;91;22423;-84
2022/08/15 06:13:45;;;;;;;15.60;10.15;;;;;;;21.54;76.38;99522.73;1413880;91;22572;-84
2022/08/15 06:16:31;;;;;;;18.00;11.53;;;;;;;21.62;75.28;99518.30;1404149;93;21456;-85
2022/08/15 06:19:07;;;;;;;12.07;10.82;;;;;;;21.75;76.03;99521.73;1432179;91;21676;-85
2022/08/15 06:22:02;;;;;;;18.05;12.65;;;;;;;21.82;75.21;99525.11;1407690;92;22477;-89
2022/08/15 06:24:36;;;;;;;12.80;10.00;;;;;;;21.92;74.62;99521.23;1417271;92;21472;-90
2022/08/15 06:27:19;;;;;;;17.52;10.30;;;;;;;22.06;74.03;99514.99;1414572;91;21663;-89
2022/08/15 06:30:00;;;;;;;14.25;9.35;;;;;;;22.35;72.97;99498.75;1406133;93;21597;-90
2022/08/15 06:33:02;;;;;;;12.28;8.98;;;;;;;22.35;72.97;99498.75;1443235;90;21628;-90
2022/08/15 06:35:45;;;;;;;16.60;9.63;;;;;;;22.53;71.76;99507.39;1401229;93;21677;-89
2022/08/15 06:38:42;;;;;;;12.45;10.40;;;;;;;22.67;70.55;99507.02;1438385;91;22376;-89
2022/08/15 06:41:20;;;;;;;13.95;9.75;;;;;;;22.87;70.89;99514.05;1422413;91;21471;-93
2022/08/15 06:43:46;;;;;;;17.60;10.03;;;;;;;23.09;70.06;99518.65;1440162;90;21600;-95
2022/08/15 06:46:13;;;;;;;14.40;10.95;;;;;;;23.23;68.74;99519.89;1410766;92;21589;-87
2022/08/15 06:48:42;;;;;;;11.25;9.68;;;;;;;23.30;68.01;99521.84;1411038;92;21611;-89
2022/08/15 06:51:10;;;;;;;11.22;9.10;;;;;;;23.34;66.62;99520.29;1411531;92;21650;-88
2022/08/15 06:53:54;;;;;;;15.50;10.18;;;;;;;23.41;66.37;99526.29;1421958;92;22720;-88
2022/08/15 06:56:34;;;;;;;13.78;8.28;;;;;;;23.43;66.44;99525.52;1417243;92;21522;-88
2022/08/15 06:59:15;;;;;;;15.03;8.93;;;;;;;23.50;64.83;99529.35;1419237;91;21529;-88
2022/08/15 07:02:05;;;;;;;11.60;8.93;;;;;;;23.58;65.66;99525.39;1424021;92;21523;-87
2022/08/15 07:05:05;;;;;;;11.70;8.75;;;;;;;23.78;65.67;99519.40;1422397;92;21696;-82
2022/08/15 07:07:35;;;;;;;10.88;9.48;;;;;;;24.00;65.36;99514.73;1423426;92;21553;-83
2022/08/15 07:10:28;;;;;;;9.13;8.15;;;;;;;24.26;65.02;99526.55;1419741;92;21523;-81
2022/08/15 07:13:14;;;;;;;14.35;8.63;;;;;;;24.43;63.17;99524.27;1422618;91;21449;-81
2022/08/15 07:16:00;;;;;;;17.17;8.63;;;;;;;24.46;62.04;99529.16;1416596;92;21656;-81
2022/08/15 07:18:41;;;;;;;13.22;8.25;;;;;;;24.53;61.22;99529.17;1419335;91;21626;-80
2022/08/15 07:21:18;;;;;;;14.85;9.03;;;;;;;24.61;59.23;99526.53;1421558;91;22477;-83
2022/08/15 07:24:17;;;;;;;10.85;8.45;;;;;;;24.80;61.17;99532.33;1419172;92;22742;-83
2022/08/15 07:27:00;;;;;;;12.63;8.55;;;;;;;24.98;61.07;99527.80;1406682;92;21511;-81
2022/08/15 07:29:49;;;;;;;15.40;7.95;;;;;;;25.17;60.27;99525.45;1419991;92;22292;-82
2022/08/15 07:32:26;;;;;;;12.33;8.35;;;;;;;25.35;60.42;99530.94;1411267;92;21529;-83
2022/08/15 07:35:13;;;;;;;10.65;8.23;;;;;;;25.46;59.03;99538.53;1407225;92;21557;-83
2022/08/15 07:37:45;;;;;;;11.50;7.62;;;;;;;25.56;58.50;99543.98;1394246;92;21518;-84
2022/08/15 07:40:22;;;;;;;14.25;8.55;;;;;;;25.67;58.22;99546.18;1443345;91;21415;-83
2022/08/15 07:42:48;;;;;;;17.80;7.83;;;;;;;25.79;57.79;99542.66;1439811;91;21556;-83
2022/08/15 07:45:36;;;;;;;15.65;8.35;;;;;;;25.92;57.49;99544.05;1437839;91;21393;-85
2022/08/15 07:48:23;;;;;;;15.58;7.95;;;;;;;25.97;55.92;99548.67;1432727;91;21482;-84
2022/08/15 07:51:23;;;;;;;18.52;8.58;;;;;;;26.03;55.99;99551.10;1432674;91;21519;-82
2022/08/15 07:54:06;;;;;;;12.68;8.10;;;;;;;26.15;56.17;99556.80;1417748;91;22617;-84
2022/08/15 07:56:34;;;;;;;15.10;8.70;;;;;;;26.15;54.79;99552.19;1410856;92;22513;-83
2022/08/15 07:59:21;;;;;;;12.20;7.35;;;;;;;26.29;55.78;99552.45;1414162;92;22358;-85
2022/08/15 08:01:49;;;;;;;15.85;7.92;;;;;;;26.40;55.48;99554.08;1413027;92;22307;-87
2022/08/15 08:04:27;;;;;;;12.45;8.00;;;;;;;26.58;54.96;99549.19;1413120;92;21383;-82
2022/08/15 08:07:05;;;;;;;11.20;7.45;;;;;;;26.57;53.21;99544.86;1410329;92;22572;-83
2022/08/15 08:09:39;;;;;;;11.80;7.65;;;;;;;26.55;52.26;99543.22;1406959;92;21619;-83
2022/08/15 08:12:54;;;;;;;9.03;7.25;;;;;;;26.69;54.06;99544.82;1408456;92;21509;-82
2022/08/15 08:15:42;;;;;;;14.15;7.75;;;;;;;26.75;53.12;99543.71;1411446;92;21456;-82
2022/08/15 08:18:29;;;;;;;11.38;8.35;;;;;;;26.91;53.10;99543.13;1415210;92;21501;-83
2022/08/15 08:21:11;;;;;;;13.05;8.18;;;;;;;27.10;52.93;99539.80;1410157;92;21530;-83
2022/08/15 08:23:47;;;;;;;13.15;7.67;;;;;;;27.29;52.38;99539.47;1428428;91;21570;-83
2022/08/15 08:26:26;;;;;;;14.55;7.12;;;;;;;27.39;51.74;99539.42;1441837;91;21595;-82
2022/08/15 08:29:10;;;;;;;10.10;7.15;;;;;;;27.53;51.51;99540.95;1422137;91;21414;-83
2022/08/15 08:31:56;;;;;;;9.25;7.72;;;;;;;27.71;51.32;99544.09;1407096;93;21540;-83
2022/08/15 08:35:05;;;;;;;9.40;6.67;;;;;;;27.82;50.60;99553.32;1416075;91;21430;-83
2022/08/15 08:37:54;;;;;;;12.10;6.53;;;;;;;27.88;50.65;99546.74;1432235;91;21474;-83
2022/08/15 08:44:03;;;;;;;9.18;6.40;;;;;;;28.11;49.27;99544.39;1413804;92;21516;-83
2022/08/15 08:47:01;;;;;;;8.23;6.62;;;;;;;28.25;48.45;99545.33;1392802;92;21449;-83
2022/08/15 08:50:11;;;;;;;10.03;6.35;;;;;;;28.31;46.11;99547.45;1412395;92;21419;-83
2022/08/15 08:52:52;;;;;;;11.48;6.05;;;;;;;28.47;47.93;99541.36;1414495;90;21480;-83
2022/08/15 08:55:21;;;;;;;;;;;;;;;28.61;45.35;99547.75;1439613;89;21555;-83
2022/08/15 08:57:52;;;;;;;11.50;6.37;;;;;;;28.49;46.08;99544.61;1441732;90;20297;-83
2022/08/15 09:00:23;;;;;;;10.60;5.90;;;;;;;28.45;45.80;99540.83;1437349;89;21460;-83
2022/08/15 09:03:04;;;;;;;10.65;5.28;;;;;;;28.46;45.99;99538.39;1438628;90;21378;-83
2022/08/15 09:05:36;;;;;;;10.25;6.35;;;;;;;28.49;46.03;99534.53;1429528;90;22399;-82
2022/08/15 09:08:17;;;;;;;8.50;5.40;;;;;;;28.70;46.20;99535.13;1448063;90;21573;-83
2022/08/15 09:10:47;;;;;;;6.50;4.87;;;;;;;28.96;45.29;99522.57;1440523;90;21548;-83
2022/08/15 09:13:34;;;;;;;8.50;5.60;;;;;;;29.04;43.88;99519.23;1438141;90;22420;-83
2022/08/15 09:16:09;;;;;;;55.70;12.07;;;;;;;29.31;45.35;99523.23;1434456;90;22346;-83
2022/08/15 09:18:46;;;;;;;28.60;6.72;;;;;;;29.55;45.04;99518.53;1431598;90;21429;-83
2022/08/15 09:21:12;;;;;;;8.90;6.40;;;;;;;29.74;43.05;99519.09;1437685;90;21606;-83
2022/08/15 09:23:42;;;;;;;14.83;6.65;;;;;;;29.84;44.26;99518.95;1445793;90;21473;-83
2022/08/15 09:26:16;;;;;;;9.08;5.45;;;;;;;29.99;43.65;99518.69;1442670;90;21466;-83
2022/08/15 09:28:47;;;;;;;14.00;5.75;;;;;;;29.91;41.64;99517.99;1443561;90;21628;-83
2022/08/15 09:31:22;;;;;;;10.80;5.62;;;;;;;29.95;42.30;99517.64;1420633;92;21375;-83
2022/08/15 09:34:27;;;;;;;7.70;5.15;;;;;;;29.99;42.25;99515.16;1417595;92;21486;-83
2022/08/15 09:37:29;;;;;;;8.10;6.05;;;;;;;30.10;42.24;99511.95;1443752;90;21547;-84
2022/08/15 09:40:41;;;;;;;8.98;4.70;;;;;;;30.29;42.06;99508.37;1437213;90;22464;-84
2022/08/15 09:43:36;;;;;;;6.92;4.75;;;;;;;30.45;41.46;99501.52;1434267;90;21593;-84
2022/08/15 09:46:22;;;;;;;16.25;5.25;;;;;;;30.55;41.47;99512.23;1440291;90;22547;-84
2022/08/15 09:49:10;;;;;;;9.23;5.25;;;;;;;30.67;41.50;99514.48;1447455;90;21614;-84
2022/08/15 09:51:57;;;;;;;7.05;4.58;;;;;;;30.79;40.66;99512.64;1440436;90;21490;-84
2022/08/15 09:54:23;;;;;;;7.58;4.65;;;;;;;30.88;40.39;99512.73;1446579;90;22495;-83
2022/08/15 09:57:10;;;;;;;5.58;3.98;;;;;;;31.07;39.52;99512.03;1444617;91;22360;-84
2022/08/15 09:59:37;;;;;;;5.35;4.30;;;;;;;31.23;39.19;99511.97;1417755;91;21596;-83
2022/08/15 10:02:21;;;;;;;6.72;4.25;;;;;;;31.19;38.79;99503.34;1433009;90;22479;-84
2022/08/15 10:05:02;;;;;;;7.00;3.83;;;;;;;31.33;39.02;99506.81;1435422;90;21452;-83
2022/08/15 10:07:58;;;;;;;9.00;4.20;;;;;;;31.43;38.49;99503.89;1442888;90;21511;-83
2022/08/15 10:10:35;;;;;;;5.90;4.58;;;;;;;31.32;38.14;99505.77;1445203;90;21570;-83
2022/08/15 10:13:13;;;;;;;15.20;4.87;;;;;;;31.53;38.35;99506.14;1441863;90;22630;-83
2022/08/15 10:15:46;;;;;;;6.95;3.98;;;;;;;31.58;38.18;99502.73;1434868;90;21467;-84
2022/08/15 10:18:30;;;;;;;8.03;3.92;;;;;;;31.59;37.65;99501.62;1441525;90;21408;-84
2022/08/15 10:21:11;;;;;;;8.13;3.83;;;;;;;31.52;37.45;99501.23;1439626;90;21651;-84
2022/08/15 10:23:43;;;;;;;5.33;3.72;;;;;;;31.56;35.67;99498.68;1433874;89;21511;-84
2022/08/15 10:26:30;;;;;;;11.75;4.47;;;;;;;31.80;35.40;99499.20;1452403;90;21548;-84
2022/08/15 10:29:11;;;;;;;20.50;4.53;;;;;;;31.94;36.49;99497.80;1439523;90;21474;-84
2022/08/15 10:31:50;;;;;;;10.03;4.67;;;;;;;32.09;36.70;99497.96;1443193;89;21473;-83
2022/08/15 10:34:41;;;;;;;9.50;4.97;;;;;;;32.29;37.38;99497.42;1433628;90;21585;-83
2022/08/15 10:37:34;;;;;;;9.33;4.50;;;;;;;32.51;37.04;99490.28;1446543;90;21444;-84
2022/08/15 10:40:41;;;;;;;10.88;4.92;;;;;;;32.76;36.68;99487.39;1420155;90;21515;-83
2022/08/15 10:43:32;;;;;;;6.00;4.37;;;;;;;32.78;36.68;99487.32;1417046;92;22365;-84
2022/08/15 10:46:28;;;;;;;11.25;3.95;;;;;;;32.84;36.41;99494.03;1449045;90;21625;-79
2022/08/15 10:49:09;;;;;;;7.92;4.47;;;;;;;32.55;35.69;99492.66;1442112;90;21666;-80
2022/08/15 10:51:56;;;;;;;8.98;4.10;;;;;;;32.54;36.17;99490.48;1435383;90;21477;-80
2022/08/15 10:54:33;;;;;;;5.58;4.05;;;;;;;32.61;35.78;99490.58;1412189;92;21723;-80
2022/08/15 10:57:02;;;;;;;9.20;3.83;;;;;;;32.40;35.16;99502.61;1411024;92;22165;-80
2022/08/15 10:59:36;;;;;;;6.53;3.40;;;;;;;32.39;34.84;99493.59;1420323;92;21612;-80
2022/08/15 11:02:47;;;;;;;5.20;2.95;;;;;;;32.43;34.85;99498.70;1414595;92;22513;-80
2022/08/15 11:05:20;;;;;;;8.53;3.67;;;;;;;32.59;34.98;99490.88;1423535;91;21512;-80
2022/08/15 11:07:55;;;;;;;14.83;3.35;;;;;;;32.65;34.66;99491.55;1435606;91;21584;-80
2022/08/15 11:10:26;;;;;;;5.78;3.52;;;;;;;32.47;34.68;99497.53;1438977;91;21423;-80
2022/08/15 11:12:57;;;;;;;12.50;3.55;;;;;;;32.35;35.05;99494.79;1436289;91;21437;-80
2022/08/15 11:15:47;;;;;;;9.70;3.80;;;;;;;32.25;34.94;99493.68;1428458;91;21489;-80
2022/08/15 11:18:27;;;;;;;13.32;3.87;;;;;;;32.14;34.99;99497.27;1417686;91;21602;-79
2022/08/15 11:20:59;;;;;;;11.28;3.95;;;;;;;32.07;34.53;99497.45;1433461;91;22497;-80
2022/08/15 11:23:36;;;;;;;6.12;3.65;;;;;;;31.89;35.02;99487.75;1433278;91;21458;-79
2022/08/15 11:26:05;;;;;;;9.60;3.37;;;;;;;31.81;34.79;99491.80;1439566;91;22354;-80
2022/08/15 11:28:32;;;;;;;10.87;3.63;;;;;;;31.77;34.63;99488.88;1435888;91;22740;-80
2022/08/15 11:31:09;;;;;;;3.67;3.00;;;;;;;31.74;34.22;99490.87;1440426;91;21534;-80
2022/08/15 11:33:49;;;;;;;4.92;3.33;;;;;;;31.76;34.53;99484.51;1432577;91;21467;-80
2022/08/15 11:36:25;;;;;;;3.55;2.80;;;;;;;31.83;34.81;99482.16;1437272;91;21496;-80
2022/08/15 11:39:03;;;;;;;6.67;3.42;;;;;;;31.82;35.17;99488.77;1436977;91;22377;-80
2022/08/15 11:41:33;;;;;;;7.10;3.60;;;;;;;31.76;35.16;99480.97;1435696;89;21503;-79
2022/08/15 11:44:01;;;;;;;6.87;3.30;;;;;;;31.67;34.87;99483.64;1440622;91;21622;-80
2022/08/15 11:46:28;;;;;;;4.20;3.30;;;;;;;31.34;35.25;99485.22;1432495;91;21578;-80
2022/08/15 11:48:59;;;;;;;5.33;2.98;;;;;;;31.17;35.47;99483.13;1437883;91;21488;-80
2022/08/15 11:51:37;;;;;;;4.42;3.35;;;;;;;30.93;35.43;99473.83;1434395;91;22392;-80
2022/08/15 11:54:12;;;;;;;7.75;3.25;;;;;;;30.64;35.30;99470.57;1430486;89;22477;-80
2022/08/15 11:56:56;;;;;;;8.10;3.65;;;;;;;30.62;35.96;99462.70;1425953;91;21517;-80
2022/08/15 11:59:32;;;;;;;5.85;2.83;;;;;;;30.69;35.92;99460.92;1440231;89;21371;-81
2022/08/15 12:02:06;;;;;;;13.60;3.40;;;;;;;30.71;36.18;99461.43;1429955;91;21530;-81
2022/08/15 12:04:38;;;;;;;9.23;3.10;;;;;;;30.47;35.67;99457.00;1439272;89;21449;-81
2022/08/15 12:07:15;;;;;;;5.47;3.27;;;;;;;30.52;36.65;99460.97;1449530;88;21471;-81